Time;durP1;ratioP1;P1;durP2;ratioP2;P2;SDS_P1;SDS_P2;PMS_P1;PMS_P2;Temp;Humidity;BMP_temperature;BMP_pressure;BME280_temperature;BME280_humidity;BME280_pressure;Samples;Min_cycle;Max_cycle;Signal;HPM_P1;HPM_P2
2023/01/27 00:00:55;;;;;;;9.13;3.47;;;5.50;99.90;;;;;;6211105;23;20078;-86
2023/01/27 00:03:21;;;;;;;14.95;3.90;;;5.50;99.90;;;;;;6210658;23;20079;-85
2023/01/27 00:05:47;;;;;;;12.55;4.13;;;5.40;99.90;;;;;;6184418;23;20437;-84
2023/01/27 00:08:16;;;;;;;17.33;3.80;;;5.50;99.90;;;;;;6212382;23;19997;-86
2023/01/27 00:10:42;;;;;;;30.63;4.05;;;5.50;99.90;;;;;;6211844;23;20337;-84
2023/01/27 00:13:30;;;;;;;13.73;3.40;;;5.50;99.90;;;;;;6211140;23;20445;-85
2023/01/27 00:15:56;;;;;;;;;;;5.40;99.90;;;;;;6210710;23;20315;-85
2023/01/27 00:18:24;;;;;;;19.50;3.78;;;5.40;99.90;;;;;;6211254;23;19945;-85
2023/01/27 00:26:18;;;;;;;11.85;3.63;;;5.30;99.90;;;;;;6211479;23;20015;-86
2023/01/27 00:28:45;;;;;;;12.15;3.03;;;5.30;99.90;;;;;;6211437;23;19996;-87
2023/01/27 00:34:07;;;;;;;11.63;2.90;;;5.30;99.90;;;;;;6210171;23;20160;-87
2023/01/27 00:36:34;;;;;;;8.38;2.88;;;5.40;99.90;;;;;;6214430;23;20001;-84
2023/01/27 00:38:59;;;;;;;12.95;2.90;;;5.40;99.90;;;;;;6220854;23;20023;-86
2023/01/27 00:41:27;;;;;;;11.63;2.70;;;5.40;99.90;;;;;;6197827;23;20406;-85
2023/01/27 00:43:53;;;;;;;15.27;2.65;;;5.40;99.90;;;;;;6214642;23;20433;-89
2023/01/27 00:46:22;;;;;;;13.43;3.33;;;5.50;99.90;;;;;;6187985;23;20012;-85
2023/01/27 00:48:48;;;;;;;6.07;2.28;;;5.50;99.90;;;;;;6214244;23;20048;-89
2023/01/27 00:51:13;;;;;;;10.73;2.88;;;5.50;99.90;;;;;;6187060;23;20009;-88
2023/01/27 00:53:40;;;;;;;10.85;2.42;;;5.50;99.90;;;;;;6213024;23;20561;-85
2023/01/27 00:56:06;;;;;;;13.32;2.65;;;5.50;99.90;;;;;;6211670;23;20032;-88
2023/01/27 00:58:32;;;;;;;12.77;2.78;;;5.40;99.90;;;;;;6211592;23;20028;-90
2023/01/27 01:01:00;;;;;;;12.60;2.55;;;5.50;99.90;;;;;;6213326;23;20009;-89
2023/01/27 01:03:30;;;;;;;13.07;2.80;;;5.50;99.90;;;;;;6212695;23;20444;-91
2023/01/27 01:06:00;;;;;;;14.80;2.78;;;5.50;99.90;;;;;;6213064;23;20058;-89
2023/01/27 01:08:28;;;;;;;8.93;2.95;;;5.40;99.90;;;;;;6213892;23;19997;-89
2023/01/27 01:10:54;;;;;;;16.40;2.60;;;5.40;99.90;;;;;;6187334;23;20387;-90
2023/01/27 01:13:20;;;;;;;17.58;2.88;;;5.50;99.90;;;;;;6212117;23;20504;-88
2023/01/27 01:15:46;;;;;;;14.23;2.63;;;5.40;99.90;;;;;;6212913;23;20076;-90
2023/01/27 01:18:12;;;;;;;13.73;2.60;;;5.40;99.90;;;;;;6211857;23;20058;-89
2023/01/27 01:20:42;;;;;;;12.70;2.40;;;5.40;99.90;;;;;;6186094;23;20040;-91
2023/01/27 01:23:08;;;;;;;16.27;2.83;;;5.40;99.90;;;;;;6212572;23;20004;-87
2023/01/27 01:25:34;;;;;;;9.80;2.40;;;5.40;99.90;;;;;;6183952;23;20318;-86
2023/01/27 01:28:01;;;;;;;12.98;2.75;;;5.40;99.90;;;;;;6208968;23;20012;-86
2023/01/27 01:30:27;;;;;;;10.32;2.55;;;5.40;99.90;;;;;;6210405;23;20001;-84
2023/01/27 01:32:53;;;;;;;16.98;3.20;;;5.40;99.90;;;;;;6210295;23;20005;-85
2023/01/27 01:35:20;;;;;;;8.95;2.38;;;5.40;99.90;;;;;;6210766;23;20077;-85
2023/01/27 01:37:46;;;;;;;7.72;2.45;;;5.40;99.90;;;;;;6209598;23;20456;-84
2023/01/27 01:40:12;;;;;;;12.00;2.22;;;5.40;99.90;;;;;;6183618;23;20009;-85
2023/01/27 01:42:58;;;;;;;16.48;2.65;;;5.40;99.90;;;;;;6210728;23;20079;-85
2023/01/27 01:45:30;;;;;;;13.57;2.40;;;5.50;99.90;;;;;;6182800;23;20005;-85
2023/01/27 01:48:07;;;;;;;10.88;1.90;;;5.40;99.90;;;;;;6184031;23;20492;-84
2023/01/27 01:50:33;;;;;;;10.73;1.90;;;5.40;99.90;;;;;;6208549;23;20437;-87
2023/01/27 01:53:02;;;;;;;9.63;2.20;;;5.50;99.90;;;;;;6183752;23;20012;-84
2023/01/27 01:55:29;;;;;;;8.52;1.83;;;5.40;99.90;;;;;;6210344;23;20063;-86
2023/01/27 01:57:54;;;;;;;10.02;2.08;;;5.40;99.90;;;;;;6210329;23;20004;-85
2023/01/27 02:00:20;;;;;;;11.35;2.33;;;5.50;99.90;;;;;;6210631;23;20027;-86
2023/01/27 02:02:48;;;;;;;6.00;2.40;;;5.40;99.90;;;;;;6183430;23;20062;-86
2023/01/27 02:05:25;;;;;;;8.95;2.33;;;5.40;99.90;;;;;;6210354;23;20076;-88
2023/01/27 02:08:02;;;;;;;8.48;1.90;;;5.40;99.90;;;;;;6210683;23;20004;-84
2023/01/27 02:10:28;;;;;;;6.15;1.63;;;5.30;99.90;;;;;;6210201;23;20437;-86
2023/01/27 02:12:53;;;;;;;9.55;2.08;;;5.30;99.90;;;;;;6210916;23;19997;-85
2023/01/27 02:15:22;;;;;;;10.70;1.92;;;5.30;99.90;;;;;;6211369;23;20051;-85
2023/01/27 02:17:48;;;;;;;7.72;1.80;;;5.30;99.90;;;;;;6211388;23;19997;-87
2023/01/27 02:21:04;;;;;;;4.88;1.77;;;5.20;99.90;;;;;;6210498;23;20030;-91
2023/01/27 02:23:45;;;;;;;6.13;1.73;;;5.20;99.90;;;;;;6090363;23;20006;-90
2023/01/27 02:26:27;;;;;;;7.10;1.95;;;5.20;99.90;;;;;;6089992;23;20057;-90
2023/01/27 02:28:59;;;;;;;9.10;2.10;;;5.30;99.90;;;;;;6173920;23;20004;-86
2023/01/27 02:31:25;;;;;;;5.50;1.63;;;5.30;99.90;;;;;;6211767;23;20051;-84
2023/01/27 02:33:55;;;;;;;6.30;1.65;;;5.30;99.90;;;;;;6212285;23;20084;-88
2023/01/27 02:36:21;;;;;;;3.35;1.45;;;5.20;99.90;;;;;;6211943;23;20080;-89
2023/01/27 02:38:52;;;;;;;5.15;1.75;;;5.20;99.90;;;;;;6211276;23;20031;-89
2023/01/27 02:41:25;;;;;;;6.82;1.40;;;5.10;99.90;;;;;;6209845;23;20038;-87
2023/01/27 02:43:51;;;;;;;7.80;1.70;;;5.10;99.90;;;;;;6212056;23;20429;-89
2023/01/27 02:46:17;;;;;;;4.38;1.60;;;5.10;99.90;;;;;;6184022;23;20042;-90
2023/01/27 02:48:43;;;;;;;4.28;1.73;;;5.10;99.90;;;;;;6184645;23;20484;-85
2023/01/27 02:51:09;;;;;;;8.93;1.73;;;5.10;99.90;;;;;;6184621;23;20008;-89
2023/01/27 02:53:35;;;;;;;9.85;2.10;;;5.10;99.90;;;;;;6210457;23;20481;-85
2023/01/27 02:56:01;;;;;;;4.80;1.63;;;5.10;99.90;;;;;;6210706;23;20005;-85
2023/01/27 02:58:26;;;;;;;7.65;2.17;;;5.10;99.90;;;;;;6185366;23;20004;-84
2023/01/27 03:00:52;;;;;;;9.13;2.13;;;5.10;99.90;;;;;;6213092;23;20031;-90
2023/01/27 03:03:18;;;;;;;10.18;2.25;;;5.10;99.90;;;;;;6212757;23;20027;-88
2023/01/27 03:05:44;;;;;;;7.18;1.90;;;5.10;99.90;;;;;;6212418;23;19996;-91
2023/01/27 03:08:10;;;;;;;12.77;2.22;;;5.10;99.90;;;;;;6212073;23;20024;-88
2023/01/27 03:10:36;;;;;;;10.18;2.38;;;5.10;99.90;;;;;;6186095;23;20001;-88
2023/01/27 03:13:02;;;;;;;11.48;2.70;;;5.10;99.90;;;;;;6215015;23;20011;-88
2023/01/27 03:18:12;;;;;;;11.35;2.42;;;5.10;99.90;;;;;;6212951;23;20479;-85
2023/01/27 03:20:48;;;;;;;12.65;2.58;;;5.10;99.90;;;;;;6211695;23;20009;-86
2023/01/27 03:23:15;;;;;;;14.48;2.67;;;5.10;99.90;;;;;;6211461;23;20023;-86
2023/01/27 03:25:42;;;;;;;13.02;2.88;;;5.20;99.90;;;;;;6184922;23;20008;-90
2023/01/27 03:28:08;;;;;;;9.48;2.83;;;5.10;99.90;;;;;;6211894;23;20004;-85
2023/01/27 03:30:34;;;;;;;12.85;2.85;;;5.10;99.90;;;;;;6211557;23;20051;-85
2023/01/27 03:33:02;;;;;;;17.20;3.10;;;5.10;99.90;;;;;;6212332;23;20009;-89
2023/01/27 03:35:33;;;;;;;13.93;2.95;;;5.20;99.90;;;;;;6212254;23;20314;-86
2023/01/27 03:46:19;;;;;;;10.95;2.55;;;5.20;99.90;;;;;;6211543;23;20008;-85
2023/01/27 03:48:49;;;;;;;12.57;2.63;;;5.10;99.90;;;;;;6211854;23;20008;-86
2023/01/27 03:51:16;;;;;;;12.10;2.90;;;5.20;99.90;;;;;;6183678;23;20001;-87
2023/01/27 03:53:42;;;;;;;14.38;2.92;;;5.10;99.90;;;;;;6210923;23;20024;-87
2023/01/27 03:56:08;;;;;;;15.25;2.90;;;5.20;99.90;;;;;;6185342;23;20001;-87
2023/01/27 03:58:35;;;;;;;9.43;2.75;;;5.20;99.90;;;;;;6213661;23;20012;-89
2023/01/27 04:01:16;;;;;;;13.07;2.45;;;5.20;99.90;;;;;;6212917;23;20008;-89
2023/01/27 04:06:52;;;;;;;14.70;3.00;;;5.20;99.90;;;;;;6214882;23;20063;-91
2023/01/27 04:09:36;;;;;;;9.43;2.58;;;5.20;99.90;;;;;;6212307;23;20024;-92
2023/01/27 04:12:04;;;;;;;13.27;2.63;;;5.10;99.90;;;;;;6215476;23;20024;-90
2023/01/27 04:14:34;;;;;;;17.70;2.95;;;5.10;99.90;;;;;;6215486;23;20027;-90
2023/01/27 04:17:01;;;;;;;10.35;2.83;;;5.10;99.90;;;;;;6188479;23;20001;-90
2023/01/27 04:19:27;;;;;;;10.35;3.22;;;5.10;99.90;;;;;;6216225;23;20008;-91
2023/01/27 04:21:53;;;;;;;12.43;2.70;;;5.10;99.90;;;;;;6214739;23;20035;-88
2023/01/27 04:24:22;;;;;;;11.75;3.10;;;5.10;99.90;;;;;;6214544;23;19992;-90
2023/01/27 04:26:53;;;;;;;12.43;2.80;;;5.10;99.90;;;;;;6214498;23;20012;-91
2023/01/27 04:29:20;;;;;;;14.65;2.65;;;5.10;99.90;;;;;;6213069;23;20005;-91
2023/01/27 04:31:45;;;;;;;10.98;2.33;;;5.00;99.90;;;;;;6213170;23;20008;-90
2023/01/27 04:34:11;;;;;;;21.08;3.25;;;4.90;99.90;;;;;;6211961;23;20426;-88
2023/01/27 04:36:38;;;;;;;11.35;2.30;;;4.80;99.90;;;;;;6213866;23;20079;-90
2023/01/27 04:39:04;;;;;;;16.38;2.60;;;4.80;99.90;;;;;;6185439;23;20005;-89
2023/01/27 04:41:29;;;;;;;15.60;2.95;;;4.70;99.90;;;;;;6214176;23;20341;-89
2023/01/27 04:43:55;;;;;;;6.57;1.85;;;4.70;99.90;;;;;;6211705;23;20003;-89
2023/01/27 04:46:21;;;;;;;12.07;2.75;;;4.70;99.90;;;;;;6210983;23;20004;-93
2023/01/27 04:48:46;;;;;;;15.60;2.47;;;4.60;99.90;;;;;;6211758;23;20001;-89
2023/01/27 04:51:12;;;;;;;10.27;1.90;;;4.60;99.90;;;;;;6209681;23;20322;-86
2023/01/27 04:53:38;;;;;;;7.75;2.75;;;4.90;99.90;;;;;;6183963;23;20365;-87
2023/01/27 04:56:19;;;;;;;7.63;2.13;;;4.70;99.90;;;;;;6209506;23;20040;-87
2023/01/27 04:58:44;;;;;;;9.02;2.17;;;4.60;99.90;;;;;;6211111;23;19996;-87
2023/01/27 05:01:10;;;;;;;10.82;2.35;;;4.60;99.90;;;;;;6208506;23;20020;-87
2023/01/27 05:03:35;;;;;;;15.95;2.55;;;4.50;99.90;;;;;;6184623;23;20004;-88
2023/01/27 05:06:03;;;;;;;12.82;2.90;;;4.50;99.90;;;;;;6185211;23;20009;-89
2023/01/27 05:08:29;;;;;;;9.13;2.33;;;4.40;99.90;;;;;;6210975;23;20119;-88
2023/01/27 05:10:55;;;;;;;9.73;2.45;;;4.60;99.90;;;;;;6184037;23;20397;-86
2023/01/27 05:13:20;;;;;;;15.75;2.78;;;4.80;99.90;;;;;;6183193;23;20001;-86
2023/01/27 05:15:46;;;;;;;18.08;2.50;;;4.30;99.90;;;;;;6182833;23;20004;-86
2023/01/27 05:18:13;;;;;;;8.60;1.98;;;4.30;99.90;;;;;;6209859;23;20076;-89
2023/01/27 05:20:38;;;;;;;8.15;2.00;;;4.30;99.90;;;;;;6209753;23;19996;-87
2023/01/27 05:25:48;;;;;;;9.07;1.80;;;4.20;99.90;;;;;;6210291;23;20043;-84
2023/01/27 05:28:14;;;;;;;9.20;2.15;;;4.20;99.90;;;;;;6203740;23;20016;-86
2023/01/27 05:30:39;;;;;;;10.85;2.47;;;4.30;99.90;;;;;;6206618;23;20015;-91
2023/01/27 05:33:07;;;;;;;6.75;1.98;;;4.30;99.90;;;;;;6208933;23;20387;-87
2023/01/27 05:35:33;;;;;;;5.65;1.70;;;4.20;99.90;;;;;;6207865;23;20009;-86
2023/01/27 05:37:59;;;;;;;7.45;2.22;;;4.20;99.90;;;;;;6210073;23;19993;-85
2023/01/27 05:40:24;;;;;;;13.70;2.50;;;4.20;99.90;;;;;;6208811;23;20249;-84
2023/01/27 05:42:51;;;;;;;10.85;2.10;;;4.20;99.90;;;;;;6182663;23;20091;-86
2023/01/27 05:45:17;;;;;;;10.88;2.13;;;4.20;99.90;;;;;;6208674;23;20342;-84
2023/01/27 05:47:42;;;;;;;8.07;1.90;;;4.40;99.90;;;;;;6210457;23;20071;-85
2023/01/27 05:50:08;;;;;;;12.18;2.33;;;4.20;99.90;;;;;;6209164;23;20345;-86
2023/01/27 05:52:34;;;;;;;15.05;2.42;;;4.10;99.90;;;;;;6210342;23;19997;-85
2023/01/27 05:54:59;;;;;;;11.80;3.05;;;4.10;99.90;;;;;;6211791;23;20011;-88
2023/01/27 05:57:25;;;;;;;9.68;2.40;;;4.10;99.90;;;;;;6183049;23;19996;-86
2023/01/27 05:59:51;;;;;;;7.45;2.10;;;4.10;99.90;;;;;;6183162;23;20487;-86
2023/01/27 06:02:16;;;;;;;6.60;2.55;;;4.00;99.90;;;;;;6210089;23;20080;-89
2023/01/27 06:04:42;;;;;;;12.60;2.15;;;4.00;99.90;;;;;;6183143;23;20000;-87
2023/01/27 06:07:07;;;;;;;10.40;2.28;;;3.90;99.90;;;;;;6210794;23;20005;-88
2023/01/27 06:09:33;;;;;;;11.10;2.40;;;4.10;99.90;;;;;;6210251;23;20333;-89
2023/01/27 06:11:59;;;;;;;7.00;2.00;;;4.10;99.90;;;;;;6184445;23;20012;-86
2023/01/27 06:14:24;;;;;;;6.03;2.13;;;3.50;99.90;;;;;;6210641;23;20291;-87
2023/01/27 06:16:52;;;;;;;10.82;2.22;;;3.90;99.90;;;;;;6209327;23;19997;-84
2023/01/27 06:19:17;;;;;;;11.35;2.33;;;3.70;99.90;;;;;;6209619;23;20005;-88
2023/01/27 06:21:43;;;;;;;12.95;2.53;;;3.90;99.90;;;;;;6209872;23;20055;-86
2023/01/27 06:24:09;;;;;;;14.57;2.70;;;3.90;99.90;;;;;;6184058;23;20004;-85
2023/01/27 06:26:35;;;;;;;13.90;2.50;;;3.80;99.90;;;;;;6211326;23;20017;-86
2023/01/27 06:29:01;;;;;;;9.70;2.35;;;3.80;99.90;;;;;;6210455;23;20082;-84
2023/01/27 06:31:27;;;;;;;11.48;2.50;;;3.80;99.90;;;;;;6211145;23;20074;-85
2023/01/27 06:33:52;;;;;;;6.88;1.90;;;3.80;99.90;;;;;;6185000;23;20009;-86
2023/01/27 06:36:20;;;;;;;13.25;2.28;;;3.80;99.90;;;;;;6185043;23;20388;-83
2023/01/27 06:38:46;;;;;;;6.50;2.28;;;3.70;99.90;;;;;;6212175;23;20055;-83
2023/01/27 06:41:12;;;;;;;7.40;2.00;;;3.70;99.90;;;;;;6212189;23;20024;-83
2023/01/27 06:43:38;;;;;;;8.20;2.17;;;3.70;99.90;;;;;;6212080;23;20004;-83
2023/01/27 06:46:03;;;;;;;11.57;2.28;;;3.70;99.90;;;;;;6212437;23;20032;-89
2023/01/27 06:48:29;;;;;;;8.68;2.15;;;3.70;99.90;;;;;;6211970;23;20556;-86
2023/01/27 06:50:56;;;;;;;8.13;2.80;;;3.60;99.90;;;;;;6212321;23;20011;-84
2023/01/27 06:53:21;;;;;;;10.20;2.08;;;3.70;99.90;;;;;;6185491;23;20076;-87
2023/01/27 06:55:48;;;;;;;6.68;2.00;;;3.70;99.90;;;;;;6212029;23;20039;-88
2023/01/27 06:58:14;;;;;;;9.60;2.35;;;3.80;99.90;;;;;;6211817;23;20076;-87
2023/01/27 07:00:40;;;;;;;11.05;2.47;;;3.80;99.90;;;;;;6211352;23;20018;-87
2023/01/27 07:03:09;;;;;;;8.23;2.22;;;3.70;99.90;;;;;;6213108;23;20408;-86
2023/01/27 07:05:36;;;;;;;7.80;2.08;;;3.70;99.90;;;;;;6213000;23;20430;-86
2023/01/27 07:08:02;;;;;;;5.95;2.30;;;3.70;99.90;;;;;;6211322;23;20037;-86
2023/01/27 07:10:27;;;;;;;5.88;2.00;;;3.70;99.90;;;;;;6185407;23;20016;-85
2023/01/27 07:13:03;;;;;;;8.00;2.30;;;3.70;99.90;;;;;;6212116;23;19997;-86
2023/01/27 07:15:31;;;;;;;9.70;2.50;;;3.70;99.90;;;;;;6211921;23;20127;-88
2023/01/27 07:17:58;;;;;;;8.52;2.10;;;3.70;99.90;;;;;;6185769;23;20001;-86
2023/01/27 07:20:27;;;;;;;9.30;2.20;;;3.70;99.90;;;;;;6211810;23;20012;-85
2023/01/27 07:22:52;;;;;;;10.73;2.45;;;3.70;99.90;;;;;;6211718;23;20005;-86
2023/01/27 07:25:18;;;;;;;9.13;2.30;;;3.70;99.90;;;;;;6211545;23;20377;-85
2023/01/27 07:27:43;;;;;;;9.40;2.40;;;3.70;99.90;;;;;;6212283;23;20059;-86
2023/01/27 07:30:10;;;;;;;7.13;2.15;;;3.70;99.90;;;;;;6212562;23;20341;-85
2023/01/27 07:32:36;;;;;;;6.97;2.35;;;3.70;99.90;;;;;;6213215;23;20003;-87
2023/01/27 07:35:01;;;;;;;10.23;2.53;;;3.70;99.90;;;;;;6185163;23;20008;-85
2023/01/27 07:37:27;;;;;;;10.05;2.45;;;3.70;99.90;;;;;;6211962;23;20317;-85
2023/01/27 07:39:52;;;;;;;10.52;2.15;;;3.70;99.90;;;;;;6184883;23;20039;-88
2023/01/27 07:42:18;;;;;;;8.38;2.63;;;3.70;99.90;;;;;;6210845;23;20330;-89
2023/01/27 07:44:44;;;;;;;7.28;2.25;;;3.80;99.90;;;;;;6185367;23;20001;-87
2023/01/27 07:47:10;;;;;;;7.53;2.42;;;3.80;99.90;;;;;;6186658;23;20014;-90
2023/01/27 07:49:35;;;;;;;8.80;2.13;;;3.70;99.90;;;;;;6213037;23;20000;-87
2023/01/27 07:52:01;;;;;;;8.55;2.33;;;3.80;99.90;;;;;;6211320;23;20459;-88
2023/01/27 07:54:27;;;;;;;11.32;2.38;;;4.00;99.90;;;;;;6211609;23;20000;-88
2023/01/27 07:56:52;;;;;;;10.77;2.60;;;3.70;99.90;;;;;;6211755;23;20028;-88
2023/01/27 07:59:18;;;;;;;6.10;2.40;;;3.70;99.90;;;;;;6211719;23;20004;-89
2023/01/27 08:01:44;;;;;;;8.10;2.22;;;3.70;99.90;;;;;;6211319;23;20040;-90
2023/01/27 08:04:10;;;;;;;9.05;2.63;;;3.70;99.90;;;;;;6186090;23;20004;-87
2023/01/27 08:06:38;;;;;;;6.15;2.38;;;3.80;99.90;;;;;;6209829;23;20015;-87
2023/01/27 08:09:04;;;;;;;;;;;3.90;99.90;;;;;;6211928;23;20001;-89
2023/01/27 08:11:29;;;;;;;6.82;2.13;;;3.90;99.90;;;;;;6185338;23;20288;-89
2023/01/27 08:13:58;;;;;;;8.85;2.30;;;3.80;99.90;;;;;;6211844;23;20005;-90
2023/01/27 08:16:24;;;;;;;5.60;2.13;;;3.90;99.90;;;;;;6211833;23;20005;-89
2023/01/27 08:18:52;;;;;;;5.65;2.53;;;4.00;99.90;;;;;;6211917;23;20433;-92
2023/01/27 08:21:18;;;;;;;6.20;2.50;;;4.10;99.90;;;;;;6212243;23;20009;-88
2023/01/27 08:23:44;;;;;;;5.65;2.30;;;4.00;99.90;;;;;;6212298;23;19997;-88
2023/01/27 08:26:09;;;;;;;7.88;2.38;;;4.10;99.90;;;;;;6185986;23;20026;-90
2023/01/27 08:28:37;;;;;;;6.35;2.63;;;3.90;99.90;;;;;;6213658;23;20008;-90
2023/01/27 08:31:15;;;;;;;12.20;2.83;;;3.90;99.90;;;;;;6186680;23;20348;-89
2023/01/27 08:33:42;;;;;;;9.32;2.63;;;4.10;99.90;;;;;;6214372;23;20054;-88
2023/01/27 08:36:14;;;;;;;12.10;2.83;;;3.90;99.90;;;;;;6185283;23;20004;-87
2023/01/27 08:38:41;;;;;;;10.18;2.47;;;3.90;99.90;;;;;;6212553;23;20008;-88
2023/01/27 08:41:13;;;;;;;8.18;2.33;;;3.90;99.90;;;;;;6211133;23;20016;-87
2023/01/27 08:43:39;;;;;;;10.73;2.80;;;4.00;99.90;;;;;;6212266;23;20357;-87
2023/01/27 08:46:05;;;;;;;4.15;2.10;;;4.00;99.90;;;;;;6184400;23;20005;-88
2023/01/27 08:48:32;;;;;;;6.03;2.45;;;4.10;99.90;;;;;;6184715;23;20084;-87
2023/01/27 08:50:59;;;;;;;10.65;2.65;;;4.50;99.90;;;;;;6184684;23;20016;-86
2023/01/27 08:53:25;;;;;;;6.78;2.40;;;4.20;99.90;;;;;;6184614;23;20004;-86
2023/01/27 08:55:54;;;;;;;6.88;2.40;;;4.20;99.90;;;;;;6184613;23;20005;-91
2023/01/27 08:58:20;;;;;;;5.63;2.42;;;4.20;99.90;;;;;;6211244;23;20004;-91
2023/01/27 09:00:46;;;;;;;6.20;2.47;;;4.20;99.90;;;;;;6211247;23;20096;-89
2023/01/27 09:03:12;;;;;;;5.72;2.55;;;4.20;99.90;;;;;;6185386;23;20032;-90
2023/01/27 09:05:39;;;;;;;8.63;2.80;;;4.30;99.90;;;;;;6211491;23;20001;-89
2023/01/27 09:08:06;;;;;;;6.43;2.22;;;4.40;99.90;;;;;;6210995;23;20292;-88
2023/01/27 09:10:35;;;;;;;7.82;2.20;;;4.40;99.90;;;;;;6210919;23;20008;-90
2023/01/27 09:13:00;;;;;;;6.57;2.50;;;4.40;99.90;;;;;;6185270;23;20151;-89
2023/01/27 09:15:26;;;;;;;7.47;2.55;;;4.70;99.90;;;;;;6211670;23;20035;-93
2023/01/27 09:17:51;;;;;;;5.40;2.10;;;4.60;99.90;;;;;;6185140;23;20083;-91
2023/01/27 09:20:17;;;;;;;10.75;2.80;;;4.50;99.90;;;;;;6211356;23;20008;-91
2023/01/27 09:22:43;;;;;;;9.15;2.63;;;4.90;99.90;;;;;;6185370;23;20348;-88
2023/01/27 09:25:15;;;;;;;6.35;2.53;;;5.00;99.90;;;;;;6185269;23;20000;-90
2023/01/27 09:27:41;;;;;;;8.82;2.67;;;4.90;99.90;;;;;;6212101;23;20472;-91
2023/01/27 09:30:09;;;;;;;6.35;2.55;;;4.90;99.90;;;;;;6211258;23;20008;-90
2023/01/27 09:32:35;;;;;;;8.33;2.50;;;4.80;99.90;;;;;;6185238;23;20005;-89
2023/01/27 09:35:04;;;;;;;5.82;2.60;;;4.80;99.90;;;;;;6184970;23;20011;-93
2023/01/27 09:37:32;;;;;;;7.60;2.72;;;4.90;99.90;;;;;;6184638;23;20009;-91
2023/01/27 09:40:05;;;;;;;8.02;2.70;;;4.90;99.90;;;;;;6210681;23;19996;-90
2023/01/27 09:42:50;;;;;;;6.10;2.40;;;5.00;99.90;;;;;;6180903;23;20095;-89
2023/01/27 09:45:27;;;;;;;5.95;2.42;;;5.00;99.90;;;;;;6211592;23;19996;-89
2023/01/27 09:48:27;;;;;;;4.20;2.17;;;5.10;99.90;;;;;;6210461;23;20448;-92
2023/01/27 09:51:24;;;;;;;5.07;2.40;;;5.40;99.90;;;;;;6183337;23;20004;-91
2023/01/27 09:54:02;;;;;;;8.50;2.53;;;5.20;99.90;;;;;;6209517;23;20378;-89
2023/01/27 09:56:34;;;;;;;9.60;2.72;;;5.30;99.90;;;;;;6208365;23;20012;-90
2023/01/27 09:59:19;;;;;;;5.65;2.42;;;5.20;99.90;;;;;;6183464;23;20013;-89
2023/01/27 10:02:24;;;;;;;5.38;2.38;;;5.30;99.90;;;;;;6211998;23;20039;-90
2023/01/27 10:05:02;;;;;;;9.98;2.42;;;5.40;99.90;;;;;;6182737;23;20492;-91
2023/01/27 10:08:01;;;;;;;5.75;2.58;;;5.50;99.90;;;;;;6209850;23;20005;-89
2023/01/27 10:10:51;;;;;;;6.97;2.25;;;5.60;99.90;;;;;;6210365;23;20028;-89
2023/01/27 10:13:41;;;;;;;5.50;2.53;;;5.70;99.90;;;;;;6210936;23;20083;-92
2023/01/27 10:16:33;;;;;;;6.10;2.08;;;5.70;99.90;;;;;;6181550;23;20016;-87
2023/01/27 10:19:18;;;;;;;5.03;2.30;;;5.70;99.90;;;;;;6183463;23;20008;-88
2023/01/27 10:22:09;;;;;;;7.72;2.40;;;5.60;99.90;;;;;;6183843;23;20036;-89
2023/01/27 10:24:48;;;;;;;3.97;1.90;;;5.70;99.90;;;;;;6183133;23;20084;-91
2023/01/27 10:27:22;;;;;;;3.40;1.98;;;5.80;99.90;;;;;;6177718;23;20040;-89
2023/01/27 10:30:09;;;;;;;4.82;1.90;;;5.80;99.90;;;;;;6179211;23;20001;-90
2023/01/27 10:32:50;;;;;;;6.28;1.90;;;5.80;99.90;;;;;;6179899;23;20025;-90
2023/01/27 10:35:41;;;;;;;7.72;1.80;;;5.80;99.90;;;;;;6179710;23;20008;-92
2023/01/27 10:38:38;;;;;;;6.90;2.00;;;5.80;99.90;;;;;;6161538;23;20354;-89
2023/01/27 10:41:07;;;;;;;2.10;1.60;;;5.90;99.90;;;;;;6178198;23;20013;-87
2023/01/27 10:44:03;;;;;;;5.32;1.73;;;5.80;99.90;;;;;;6177663;23;20009;-87
2023/01/27 10:46:32;;;;;;;4.50;1.60;;;5.90;99.90;;;;;;6179147;23;20025;-87
2023/01/27 10:49:01;;;;;;;;;;;6.00;99.90;;;;;;6177852;23;19997;-88
2023/01/27 10:51:32;;;;;;;;;;;5.90;99.90;;;;;;6178895;23;19908;-88
2023/01/27 10:54:07;;;;;;;5.65;1.80;;;6.00;99.90;;;;;;6179470;23;20325;-88
2023/01/27 10:56:36;;;;;;;3.10;1.65;;;6.00;99.90;;;;;;6179761;23;19997;-86
2023/01/27 10:59:28;;;;;;;3.10;1.92;;;6.00;99.90;;;;;;6179565;23;20008;-89
2023/01/27 11:02:08;;;;;;;3.88;2.17;;;6.00;99.90;;;;;;6174499;23;20017;-89
2023/01/27 11:04:34;;;;;;;2.88;1.52;;;6.10;99.90;;;;;;6179442;23;20392;-88
2023/01/27 11:07:00;;;;;;;5.53;2.13;;;6.10;99.90;;;;;;6179668;23;20037;-88
2023/01/27 11:09:49;;;;;;;5.50;2.22;;;6.30;99.90;;;;;;6179056;23;20064;-90
2023/01/27 11:12:15;;;;;;;16.60;7.85;;;6.30;99.90;;;;;;6168347;23;20013;-90
2023/01/27 11:14:47;;;;;;;3.55;2.60;;;6.40;99.90;;;;;;6179323;23;20457;-90
2023/01/27 11:17:33;;;;;;;6.40;3.72;;;6.40;99.90;;;;;;6180797;23;20430;-87
2023/01/27 11:20:14;;;;;;;23.48;11.38;;;6.30;99.90;;;;;;6181762;23;20484;-90
2023/01/27 11:22:49;;;;;;;8.43;5.55;;;6.20;99.90;;;;;;6182415;23;20365;-88
2023/01/27 11:25:26;;;;;;;4.35;2.45;;;6.20;99.90;;;;;;6181976;23;20401;-84
2023/01/27 11:28:30;;;;;;;30.40;15.90;;;6.20;99.90;;;;;;6203167;23;20138;-86
2023/01/27 11:31:11;;;;;;;23.48;11.80;;;6.20;99.90;;;;;;6043580;23;20007;-87
2023/01/27 11:34:19;;;;;;;9.00;5.85;;;6.20;99.90;;;;;;6199858;23;20001;-85
2023/01/27 11:36:45;;;;;;;7.18;3.08;;;6.10;99.90;;;;;;6105214;23;20027;-88
2023/01/27 11:39:13;;;;;;;9.02;4.65;;;6.10;99.90;;;;;;6211882;23;20144;-86
2023/01/27 11:41:54;;;;;;;10.32;4.30;;;6.10;99.90;;;;;;6211821;23;20013;-87
2023/01/27 11:44:28;;;;;;;15.75;8.52;;;6.30;99.90;;;;;;6186691;23;20445;-86
2023/01/27 11:46:55;;;;;;;5.45;3.42;;;6.30;99.90;;;;;;6212075;23;20004;-85
2023/01/27 11:49:30;;;;;;;5.70;2.47;;;6.20;99.90;;;;;;6213409;23;20001;-85
2023/01/27 11:52:14;;;;;;;12.48;6.25;;;6.20;99.90;;;;;;6185442;23;20009;-86
2023/01/27 11:54:48;;;;;;;7.28;5.70;;;6.10;99.90;;;;;;6211555;23;19997;-91
2023/01/27 11:57:24;;;;;;;5.97;3.53;;;6.20;99.90;;;;;;6211851;23;20001;-87
2023/01/27 11:59:58;;;;;;;9.43;5.32;;;6.40;99.90;;;;;;6213062;23;20004;-87
2023/01/27 12:02:43;;;;;;;7.97;3.03;;;6.20;99.90;;;;;;6212428;23;20020;-86
2023/01/27 12:05:14;;;;;;;15.50;8.02;;;6.20;99.90;;;;;;6211638;23;20005;-85
2023/01/27 12:07:45;;;;;;;7.03;5.05;;;6.10;99.90;;;;;;6211622;23;20048;-86
2023/01/27 12:10:28;;;;;;;8.68;6.07;;;6.10;99.90;;;;;;6211732;23;20008;-87
2023/01/27 12:12:55;;;;;;;6.63;4.65;;;6.20;99.90;;;;;;6184723;23;20377;-87
2023/01/27 12:15:22;;;;;;;12.18;7.05;;;6.30;99.90;;;;;;6212633;23;20087;-87
2023/01/27 12:18:11;;;;;;;6.22;3.92;;;6.20;99.90;;;;;;6212589;23;20011;-86
2023/01/27 12:20:40;;;;;;;;;;;6.20;99.90;;;;;;6211689;23;20068;-86
2023/01/27 12:23:32;;;;;;;6.85;4.05;;;6.20;99.90;;;;;;6211928;23;19911;-86
2023/01/27 12:26:10;;;;;;;7.78;3.20;;;6.10;99.90;;;;;;6212441;23;20005;-87
2023/01/27 12:28:49;;;;;;;6.07;2.50;;;6.20;99.90;;;;;;6185471;23;20016;-87
2023/01/27 12:31:26;;;;;;;;;;;6.30;99.90;;;;;;6212073;23;20008;-88
2023/01/27 12:34:23;;;;;;;6.10;2.88;;;6.30;99.90;;;;;;6212812;23;19954;-86
2023/01/27 12:36:50;;;;;;;4.85;2.10;;;6.30;99.90;;;;;;6202393;23;20001;-87
2023/01/27 12:39:44;;;;;;;6.35;2.05;;;6.40;99.90;;;;;;6184216;23;20062;-87
2023/01/27 12:42:35;;;;;;;7.50;2.55;;;6.40;99.90;;;;;;6185033;23;20038;-87
2023/01/27 12:45:19;;;;;;;3.92;2.28;;;6.20;99.90;;;;;;6184235;23;20019;-89
2023/01/27 12:48:13;;;;;;;6.00;2.85;;;6.20;99.90;;;;;;6211584;23;20001;-89
2023/01/27 12:50:50;;;;;;;8.50;2.63;;;6.10;99.90;;;;;;6213241;23;20007;-90
2023/01/27 12:53:26;;;;;;;7.63;5.03;;;6.10;99.90;;;;;;6184764;23;20385;-86
2023/01/27 12:56:14;;;;;;;27.02;16.15;;;6.10;99.90;;;;;;6212002;23;20063;-87
2023/01/27 12:58:40;;;;;;;;;;;6.10;99.90;;;;;;6186111;23;20019;-86
2023/01/27 13:01:37;;;;;;;14.38;6.30;;;6.00;99.90;;;;;;6185710;23;19903;-85
2023/01/27 13:04:15;;;;;;;8.75;5.80;;;6.00;99.90;;;;;;6185184;23;20463;-86
2023/01/27 13:06:43;;;;;;;5.72;2.38;;;6.10;99.90;;;;;;6211764;23;20421;-88
2023/01/27 13:09:30;;;;;;;9.38;5.85;;;6.20;99.90;;;;;;6211381;23;20004;-87
2023/01/27 13:11:59;;;;;;;11.20;5.65;;;6.10;99.90;;;;;;6211331;23;20023;-86
2023/01/27 13:14:29;;;;;;;16.45;10.95;;;6.10;99.90;;;;;;6212801;23;20032;-88
2023/01/27 13:16:57;;;;;;;18.08;11.50;;;6.10;99.90;;;;;;6186448;23;20001;-88
2023/01/27 13:19:32;;;;;;;;;;;6.10;99.90;;;;;;6213394;23;20001;-86
2023/01/27 13:21:58;;;;;;;13.07;8.35;;;6.00;99.90;;;;;;6212339;23;19915;-88
2023/01/27 13:24:35;;;;;;;21.60;13.10;;;5.90;99.90;;;;;;6185702;23;20083;-87
2023/01/27 13:27:04;;;;;;;17.13;9.90;;;6.00;99.90;;;;;;6211627;23;20028;-86
2023/01/27 13:29:32;;;;;;;26.40;16.92;;;6.00;99.90;;;;;;6211063;23;20011;-87
2023/01/27 13:32:04;;;;;;;19.33;10.18;;;6.00;99.90;;;;;;6184864;23;20008;-88
2023/01/27 13:34:53;;;;;;;11.15;4.10;;;5.90;99.90;;;;;;6212778;23;20438;-86
2023/01/27 13:37:22;;;;;;;17.98;9.98;;;5.90;99.90;;;;;;6211565;23;20109;-86
2023/01/27 13:40:03;;;;;;;9.43;5.25;;;5.90;99.90;;;;;;6210229;23;20005;-85